createdAt,value
2022-08-12T00:00:47.518Z,1.77
2022-08-12T00:03:33.179Z,1.50
2022-08-12T00:06:20.634Z,1.80
2022-08-12T00:09:06.000Z,5.70
2022-08-12T00:11:51.257Z,1.50
2022-08-12T00:14:36.915Z,1.87
2022-08-12T00:17:23.372Z,1.73
2022-08-12T00:20:09.160Z,1.80
2022-08-12T00:22:59.169Z,1.40
2022-08-12T00:26:20.636Z,1.63
2022-08-12T00:29:00.409Z,1.70
2022-08-12T00:31:46.006Z,1.53
2022-08-12T00:34:32.391Z,1.87
2022-08-12T00:37:17.645Z,2.03
2022-08-12T00:40:11.349Z,1.77
2022-08-12T00:42:39.222Z,1.50
2022-08-12T00:45:08.249Z,1.70
2022-08-12T00:47:36.105Z,1.80
2022-08-12T00:50:04.685Z,1.70
2022-08-12T00:52:32.720Z,1.80
2022-08-12T00:55:02.936Z,1.47
2022-08-12T00:57:31.691Z,1.53
2022-08-12T01:00:01.497Z,1.70
2022-08-12T01:02:30.995Z,1.60
2022-08-12T01:05:17.725Z,1.80
2022-08-12T01:08:03.613Z,1.80
2022-08-12T01:10:50.969Z,1.53
2022-08-12T01:13:20.489Z,2.13
2022-08-12T01:15:50.415Z,1.97
2022-08-12T01:18:18.785Z,1.50
2022-08-12T01:20:50.029Z,1.50
2022-08-12T01:23:40.859Z,1.57
2022-08-12T01:26:11.906Z,1.83
2022-08-12T01:28:39.878Z,1.40
2022-08-12T01:31:07.984Z,1.50
2022-08-12T01:33:38.976Z,1.80
2022-08-12T01:36:08.663Z,1.70
2022-08-12T01:38:37.143Z,1.63
2022-08-12T01:41:05.658Z,1.70
2022-08-12T01:43:35.208Z,1.70
2022-08-12T01:46:07.553Z,1.70
2022-08-12T01:49:01.310Z,1.43
2022-08-12T01:52:21.351Z,1.40
2022-08-12T01:54:28.995Z,1.70
2022-08-12T01:56:59.713Z,1.23
2022-08-12T01:59:50.032Z,1.50
2022-08-12T02:02:19.044Z,1.60
2022-08-12T02:05:22.608Z,1.30
2022-08-12T02:08:14.109Z,1.60
2022-08-12T02:11:07.832Z,1.27
2022-08-12T02:13:49.478Z,1.73
2022-08-12T02:16:30.382Z,1.30
2022-08-12T02:19:14.367Z,1.47
2022-08-12T02:21:53.521Z,1.60
2022-08-12T02:24:22.146Z,1.40
2022-08-12T02:26:52.429Z,1.70
2022-08-12T02:29:20.695Z,2.80
2022-08-12T02:31:49.761Z,1.70
2022-08-12T02:34:17.677Z,1.40
2022-08-12T02:36:45.784Z,1.70
2022-08-12T02:39:15.353Z,2.43
2022-08-12T02:41:44.634Z,1.30
2022-08-12T02:44:12.684Z,1.43
2022-08-12T02:46:40.400Z,1.40
2022-08-12T02:49:12.680Z,2.00
2022-08-12T02:51:41.406Z,1.57
2022-08-12T02:54:09.768Z,1.40
2022-08-12T02:56:40.909Z,1.70
2022-08-12T02:59:10.617Z,1.90
2022-08-12T03:01:47.914Z,1.77
2022-08-12T03:04:20.894Z,2.20
2022-08-12T03:06:52.597Z,1.90
2022-08-12T03:09:21.572Z,1.90
2022-08-12T03:11:56.327Z,2.03
2022-08-12T03:14:27.899Z,2.33
2022-08-12T03:16:59.069Z,1.73
2022-08-12T03:19:31.094Z,2.00
2022-08-12T03:22:13.012Z,1.80
2022-08-12T03:24:44.755Z,2.00
2022-08-12T03:27:14.053Z,2.00
2022-08-12T03:29:50.153Z,2.43
2022-08-12T03:32:35.546Z,1.83
2022-08-12T03:35:07.921Z,1.93
2022-08-12T03:37:36.819Z,2.07
2022-08-12T03:40:05.572Z,1.80
2022-08-12T03:42:35.279Z,1.77
2022-08-12T03:45:31.120Z,3.70
2022-08-12T03:48:18.967Z,2.10
2022-08-12T03:51:06.627Z,2.10
2022-08-12T03:53:52.010Z,2.30
2022-08-12T03:56:37.697Z,1.50
2022-08-12T03:59:24.490Z,1.90
2022-08-12T04:01:57.876Z,2.00
2022-08-12T04:04:26.793Z,1.80
2022-08-12T04:06:56.494Z,1.90
2022-08-12T04:09:24.606Z,1.87
2022-08-12T04:12:10.099Z,2.30
2022-08-12T04:14:38.144Z,2.70
2022-08-12T04:17:06.262Z,2.20
2022-08-12T04:19:34.330Z,1.90
2022-08-12T04:22:03.980Z,1.90
2022-08-12T04:24:34.588Z,1.90
2022-08-12T04:27:02.816Z,2.00
2022-08-12T04:30:17.010Z,1.70
2022-08-12T04:32:18.734Z,1.93
2022-08-12T04:34:46.733Z,1.90
2022-08-12T04:37:17.000Z,5.03
2022-08-12T04:39:45.368Z,1.90
2022-08-12T04:42:13.497Z,2.30
2022-08-12T04:44:42.404Z,1.70
2022-08-12T04:47:12.113Z,1.90
2022-08-12T04:49:40.706Z,1.93
2022-08-12T04:52:08.545Z,1.80
2022-08-12T04:54:37.861Z,1.77
2022-08-12T04:57:09.346Z,1.90
2022-08-12T04:59:46.918Z,2.03
2022-08-12T05:02:21.184Z,1.80
2022-08-12T05:04:50.770Z,1.67
2022-08-12T05:07:18.841Z,1.80
2022-08-12T05:09:59.047Z,1.83
2022-08-12T05:12:27.720Z,2.20
2022-08-12T05:14:55.991Z,1.80
2022-08-12T05:17:28.304Z,2.00
2022-08-12T05:19:57.417Z,1.57
2022-08-12T05:22:26.527Z,1.80
2022-08-12T05:24:56.013Z,1.40
2022-08-12T05:27:23.932Z,1.70
2022-08-12T05:30:07.787Z,2.00
2022-08-12T05:32:37.250Z,2.00
2022-08-12T05:35:08.175Z,1.60
2022-08-12T05:37:36.251Z,1.97
2022-08-12T05:40:10.922Z,2.03
2022-08-12T05:42:39.479Z,1.90
2022-08-12T05:45:08.495Z,1.77
2022-08-12T05:47:36.667Z,1.60
2022-08-12T05:50:21.301Z,1.80
2022-08-12T05:52:49.309Z,1.83
2022-08-12T05:55:25.871Z,1.70
2022-08-12T05:57:56.348Z,2.10
2022-08-12T06:00:25.740Z,1.90
2022-08-12T06:03:01.200Z,2.07
2022-08-12T06:05:29.846Z,1.97
2022-08-12T06:08:01.857Z,1.87
2022-08-12T06:10:33.127Z,1.70
2022-08-12T06:13:02.522Z,1.40
2022-08-12T06:15:30.887Z,1.90
2022-08-12T06:18:14.028Z,1.67
2022-08-12T06:20:44.574Z,2.00
2022-08-12T06:23:12.878Z,1.33
2022-08-12T06:25:42.216Z,1.93
2022-08-12T06:28:17.421Z,1.20
2022-08-12T06:30:57.333Z,1.90
2022-08-12T06:33:55.453Z,1.67
2022-08-12T06:36:21.757Z,2.13
2022-08-12T06:38:49.747Z,1.70
2022-08-12T06:41:36.555Z,2.07
2022-08-12T06:57:02.965Z,1.57
2022-08-12T06:59:27.708Z,1.50
2022-08-12T07:01:55.829Z,1.80
2022-08-12T07:04:39.568Z,1.90
2022-08-12T07:07:08.453Z,1.50
2022-08-12T07:10:03.764Z,1.70
2022-08-12T07:12:27.991Z,1.80
2022-08-12T07:15:04.847Z,1.30
2022-08-12T07:17:36.580Z,1.63
2022-08-12T07:20:06.284Z,1.47
2022-08-12T07:22:34.587Z,1.57
2022-08-12T07:25:19.872Z,1.87
2022-08-12T07:27:53.633Z,1.60
2022-08-12T07:30:21.608Z,1.57
2022-08-12T07:32:51.542Z,1.63
2022-08-12T07:35:20.543Z,1.63
2022-08-12T07:37:50.444Z,1.50
2022-08-12T07:40:18.806Z,1.97
2022-08-12T07:42:49.903Z,1.50
2022-08-12T07:45:19.511Z,1.70
2022-08-12T07:47:47.636Z,1.90
2022-08-12T07:50:22.976Z,1.80
2022-08-12T07:52:51.673Z,1.80
2022-08-12T07:55:19.679Z,1.40
2022-08-12T07:57:55.922Z,1.67
2022-08-12T08:00:23.954Z,1.50
2022-08-12T08:02:54.430Z,1.70
2022-08-12T08:05:23.732Z,1.73
2022-08-12T08:07:53.360Z,1.50
2022-08-12T08:10:21.698Z,1.70
2022-08-12T08:12:57.706Z,1.60
2022-08-12T08:15:51.105Z,1.43
2022-08-12T08:18:26.707Z,1.43
2022-08-12T08:20:55.975Z,1.30
2022-08-12T08:23:56.346Z,1.27
2022-08-12T08:26:27.887Z,1.30
2022-08-12T08:28:59.706Z,1.23
2022-08-12T08:31:28.051Z,1.60
2022-08-12T08:34:09.214Z,2.20
2022-08-12T08:36:45.406Z,1.30
2022-08-12T08:39:14.893Z,1.70
2022-08-12T08:42:15.532Z,1.63
2022-08-12T08:44:49.699Z,1.20
2022-08-12T08:47:25.968Z,1.43
2022-08-12T08:49:54.289Z,1.40
2022-08-12T08:52:38.859Z,1.33
2022-08-12T08:55:09.832Z,1.47
2022-08-12T08:57:43.741Z,1.33
2022-08-12T09:00:15.798Z,3.50
2022-08-12T09:02:49.059Z,1.30
2022-08-12T09:05:27.185Z,1.20
2022-08-12T09:08:12.245Z,1.30
2022-08-12T09:10:45.223Z,1.40
2022-08-12T09:13:29.126Z,1.50
2022-08-12T09:16:19.986Z,1.43
2022-08-12T09:18:52.420Z,1.70
2022-08-12T09:21:26.136Z,1.20
2022-08-12T09:24:06.251Z,1.30
2022-08-12T09:30:11.535Z,1.63
2022-08-12T09:32:57.018Z,1.57
2022-08-12T09:35:03.344Z,1.40
2022-08-12T09:37:55.115Z,1.40
2022-08-12T09:42:07.369Z,1.50
2022-08-12T09:43:26.071Z,1.57
2022-08-12T09:46:06.731Z,1.40
2022-08-12T09:48:55.781Z,1.47
2022-08-12T09:51:37.807Z,1.30
2022-08-12T09:54:30.644Z,1.30
2022-08-12T09:57:01.848Z,1.40
2022-08-12T10:00:15.573Z,1.33
2022-08-12T10:02:42.895Z,1.53
2022-08-12T10:05:13.414Z,1.27
2022-08-12T10:07:45.608Z,1.20
2022-08-12T10:10:23.007Z,1.23
2022-08-12T10:13:12.751Z,1.47
2022-08-12T10:16:02.205Z,1.27
2022-08-12T10:18:35.414Z,1.30
2022-08-12T10:21:08.504Z,1.30
2022-08-12T10:23:40.288Z,1.37
2022-08-12T10:26:37.400Z,1.37
2022-08-12T10:30:03.473Z,1.30
2022-08-12T10:32:20.493Z,1.40
2022-08-12T10:34:53.742Z,1.40
2022-08-12T10:38:36.337Z,1.40
2022-08-12T10:40:20.429Z,1.30
2022-08-12T10:43:07.424Z,1.40
2022-08-12T10:45:38.469Z,1.10
2022-08-12T10:48:20.985Z,1.40
2022-08-12T10:51:01.539Z,1.33
2022-08-12T10:53:44.182Z,1.30
2022-08-12T10:56:15.381Z,1.23
2022-08-12T10:58:46.873Z,1.20
2022-08-12T11:04:14.142Z,1.20
2022-08-12T11:04:23.173Z,1.30
2022-08-12T11:07:09.659Z,1.20
2022-08-12T11:10:00.574Z,1.07
2022-08-12T11:12:55.298Z,1.13
2022-08-12T11:15:32.742Z,1.10
2022-08-12T11:18:11.836Z,1.03
2022-08-12T11:20:47.542Z,1.17
2022-08-12T11:23:25.440Z,1.30
2022-08-12T11:26:06.570Z,1.33
2022-08-12T11:28:37.144Z,1.05
2022-08-12T11:31:06.549Z,1.02
2022-08-12T11:34:06.139Z,0.80
2022-08-12T11:36:22.593Z,1.00
2022-08-12T11:38:51.308Z,0.85
2022-08-12T11:41:31.018Z,0.77
2022-08-12T11:44:30.687Z,1.27
2022-08-12T11:46:51.420Z,0.85
2022-08-12T11:49:32.461Z,0.70
2022-08-12T11:52:02.202Z,0.70
2022-08-12T11:54:30.729Z,1.42
2022-08-12T11:57:02.302Z,0.70
2022-08-12T12:02:20.506Z,0.60
2022-08-12T12:04:52.212Z,0.60
2022-08-12T12:07:21.129Z,0.60
2022-08-12T12:09:52.269Z,1.33
2022-08-12T12:12:23.371Z,0.60
2022-08-12T12:14:54.938Z,0.70
2022-08-12T12:17:24.038Z,0.60
2022-08-12T12:19:53.163Z,0.60
2022-08-12T12:22:23.451Z,0.60
2022-08-12T12:24:58.692Z,0.95
2022-08-12T12:28:03.722Z,0.70
2022-08-12T12:30:29.215Z,0.60
2022-08-12T12:32:57.868Z,0.60
2022-08-12T12:36:06.061Z,0.60
2022-08-12T12:38:14.263Z,0.60
2022-08-12T12:40:44.065Z,0.52
2022-08-12T12:43:13.914Z,0.60
2022-08-12T12:45:44.366Z,0.60
2022-08-12T12:48:15.068Z,0.60
2022-08-12T12:50:45.541Z,0.65
2022-08-12T12:54:07.522Z,0.50
2022-08-12T12:56:06.879Z,0.95
2022-08-12T12:58:36.056Z,0.60
2022-08-12T13:01:04.514Z,0.50
2022-08-12T13:03:54.189Z,0.50
2022-08-12T13:06:25.562Z,0.60
2022-08-12T13:09:03.129Z,0.60
2022-08-12T13:11:41.592Z,0.60
2022-08-12T13:14:28.646Z,0.60
2022-08-12T13:17:00.201Z,0.50
2022-08-12T13:19:37.792Z,0.60
2022-08-12T13:34:52.674Z,0.88
2022-08-12T13:37:44.009Z,1.85
2022-08-12T13:40:19.775Z,0.90
2022-08-12T13:42:48.905Z,0.95
2022-08-12T13:45:19.050Z,0.80
2022-08-12T13:47:55.824Z,0.80
2022-08-12T13:50:32.572Z,0.80
2022-08-12T13:53:23.469Z,0.80
2022-08-12T13:55:59.533Z,0.85
2022-08-12T13:58:30.117Z,0.75
2022-08-12T14:00:58.654Z,0.80
2022-08-12T14:03:27.966Z,0.77
2022-08-12T14:06:04.488Z,0.85
2022-08-12T14:08:34.755Z,0.90
2022-08-12T14:11:02.949Z,0.80
2022-08-12T14:14:05.306Z,0.88
2022-08-12T14:16:37.683Z,0.80
2022-08-12T14:19:22.500Z,0.80
2022-08-12T14:22:00.974Z,0.80
2022-08-12T14:24:35.674Z,0.80
2022-08-12T14:27:09.057Z,0.70
2022-08-12T14:30:05.685Z,0.90
2022-08-12T14:32:34.579Z,0.80
2022-08-12T14:35:04.060Z,1.48
2022-08-12T14:37:57.279Z,0.80
2022-08-12T14:40:25.952Z,0.93
2022-08-12T14:42:56.856Z,0.85
2022-08-12T14:45:37.158Z,0.90
2022-08-12T14:48:14.874Z,1.08
2022-08-12T14:51:03.200Z,0.82
2022-08-12T14:59:57.131Z,0.90
2022-08-12T15:02:20.753Z,0.90
2022-08-12T15:04:51.201Z,1.00
2022-08-12T15:07:33.867Z,0.80
2022-08-12T15:10:09.438Z,1.00
2022-08-12T15:12:40.524Z,1.10
2022-08-12T15:15:10.454Z,0.90
2022-08-12T15:17:40.333Z,1.00
2022-08-12T15:20:31.791Z,1.00
2022-08-12T15:22:57.944Z,1.00
2022-08-12T15:25:27.812Z,1.03
2022-08-12T15:28:03.726Z,0.90
2022-08-12T15:30:33.909Z,1.13
2022-08-12T15:33:03.212Z,0.97
2022-08-12T15:35:52.146Z,1.07
2022-08-12T15:38:21.871Z,1.03
2022-08-12T15:40:54.179Z,1.10
2022-08-12T15:43:51.068Z,1.00
2022-08-12T15:46:15.226Z,1.07
2022-08-12T15:48:46.814Z,1.43
2022-08-12T15:51:27.893Z,0.97
2022-08-12T15:54:34.015Z,1.13
2022-08-12T15:57:08.207Z,1.20
2022-08-12T16:00:00.563Z,1.10
2022-08-12T16:02:30.097Z,1.13
2022-08-12T16:04:58.511Z,0.97
2022-08-12T16:07:31.169Z,1.27
2022-08-12T16:10:08.645Z,1.13
2022-08-12T16:12:43.695Z,1.00
2022-08-12T16:15:23.425Z,1.00
2022-08-12T16:18:15.080Z,1.20
2022-08-12T16:20:41.523Z,1.20
2022-08-12T16:23:26.355Z,2.83
2022-08-12T16:26:05.648Z,1.20
2022-08-12T16:28:35.676Z,1.10
2022-08-12T16:31:03.624Z,1.30
2022-08-12T16:33:35.957Z,1.57
2022-08-12T16:36:25.654Z,1.10
2022-08-12T16:38:53.666Z,1.20
2022-08-12T16:41:22.835Z,1.10
2022-08-12T16:43:53.520Z,1.40
2022-08-12T16:46:31.333Z,1.17
2022-08-12T16:49:04.274Z,1.30
2022-08-12T16:51:46.118Z,1.27
2022-08-12T16:54:18.259Z,1.10
2022-08-12T16:56:55.507Z,1.00
2022-08-12T16:59:52.833Z,1.13
2022-08-12T17:02:18.054Z,1.63
2022-08-12T17:05:01.026Z,1.33
2022-08-12T17:07:36.834Z,1.30
2022-08-12T17:10:06.603Z,1.30
2022-08-12T17:12:37.652Z,1.20
2022-08-12T17:15:50.639Z,1.57
2022-08-12T17:18:42.511Z,1.37
2022-08-12T17:20:47.461Z,1.20
2022-08-12T17:23:16.099Z,1.10
2022-08-12T17:25:45.323Z,1.20
2022-08-12T17:28:16.884Z,1.40
2022-08-12T17:30:57.281Z,1.47
2022-08-12T17:33:34.643Z,1.40
2022-08-12T17:36:05.759Z,1.37
2022-08-12T17:38:35.079Z,1.20
2022-08-12T17:41:22.283Z,1.40
2022-08-12T17:43:58.206Z,1.20
2022-08-12T17:46:33.065Z,1.63
2022-08-12T17:49:18.891Z,1.47
2022-08-12T17:52:02.260Z,1.53
2022-08-12T17:54:31.375Z,1.30
2022-08-12T17:57:01.328Z,1.20
2022-08-12T17:59:48.971Z,1.30
2022-08-12T18:02:25.582Z,1.20
2022-08-12T18:05:05.325Z,1.40
2022-08-12T18:07:35.665Z,1.40
2022-08-12T18:10:04.969Z,1.30
2022-08-12T18:12:42.760Z,1.37
2022-08-12T18:15:26.267Z,1.37
2022-08-12T18:18:00.183Z,1.33
2022-08-12T18:20:29.065Z,1.30
2022-08-12T18:22:59.546Z,1.20
2022-08-12T18:26:13.862Z,1.60
2022-08-12T18:28:40.356Z,1.60
2022-08-12T18:31:08.782Z,1.77
2022-08-12T18:33:41.734Z,1.57
2022-08-12T18:36:13.238Z,1.47
2022-08-12T18:38:41.428Z,1.30
2022-08-12T18:41:34.351Z,1.40
2022-08-12T18:44:08.101Z,1.40
2022-08-12T18:46:53.946Z,1.70
2022-08-12T18:49:31.894Z,1.27
2022-08-12T18:52:04.777Z,1.90
2022-08-12T18:54:35.913Z,1.50
2022-08-12T18:57:16.399Z,1.70
2022-08-12T18:59:59.775Z,1.40
2022-08-12T19:02:36.516Z,1.40
2022-08-12T19:05:11.258Z,1.60
2022-08-12T19:07:49.212Z,1.50
2022-08-12T19:10:28.545Z,1.60
2022-08-12T19:13:21.126Z,1.40
2022-08-12T19:15:54.400Z,1.67
2022-08-12T19:18:24.482Z,1.63
2022-08-12T19:20:59.184Z,1.70
2022-08-12T19:23:35.408Z,1.70
2022-08-12T19:26:03.181Z,1.50
2022-08-12T19:28:34.454Z,1.67
2022-08-12T19:31:45.131Z,1.90
2022-08-12T19:35:24.097Z,1.70
2022-08-12T19:37:17.168Z,1.50
2022-08-12T19:40:09.310Z,1.93
2022-08-12T19:42:33.696Z,1.73
2022-08-12T19:45:05.172Z,2.10
2022-08-12T19:47:39.302Z,1.97
2022-08-12T19:50:11.056Z,2.10
2022-08-12T19:52:41.817Z,1.50
2022-08-12T19:55:11.537Z,2.03
2022-08-12T19:58:02.791Z,2.00
2022-08-12T20:00:34.431Z,1.70
2022-08-12T20:03:04.531Z,1.90
2022-08-12T20:06:04.940Z,1.80
2022-08-12T20:08:32.894Z,1.83
2022-08-12T20:12:12.526Z,1.70
2022-08-12T20:14:01.357Z,1.53
2022-08-12T20:16:57.127Z,1.87
2022-08-12T20:19:28.569Z,1.70
2022-08-12T20:22:14.900Z,1.90
2022-08-12T20:24:55.411Z,1.93
2022-08-12T20:27:29.557Z,1.80
2022-08-12T20:30:14.118Z,2.07
2022-08-12T20:32:51.586Z,1.77
2022-08-12T20:35:24.378Z,1.77
2022-08-12T20:38:07.527Z,1.70
2022-08-12T20:40:47.906Z,1.80
2022-08-12T20:43:18.949Z,1.70
2022-08-12T20:45:57.215Z,2.43
2022-08-12T20:48:29.289Z,2.70
2022-08-12T20:51:04.243Z,4.73
2022-08-12T20:53:57.869Z,1.93
2022-08-12T20:56:30.692Z,2.00
2022-08-12T20:59:01.069Z,2.20
2022-08-12T21:01:47.224Z,2.30
2022-08-12T21:04:33.953Z,1.80
2022-08-12T21:07:08.584Z,2.30
2022-08-12T21:09:41.104Z,2.17
2022-08-12T21:12:30.996Z,2.33
2022-08-12T21:15:23.596Z,2.50
2022-08-12T21:18:00.545Z,2.77
2022-08-12T21:20:37.002Z,2.23
2022-08-12T21:23:06.394Z,2.00
2022-08-12T21:25:36.333Z,2.33
2022-08-12T21:28:19.035Z,2.20
2022-08-12T21:31:10.611Z,2.00
2022-08-12T21:33:58.575Z,2.40
2022-08-12T21:36:34.281Z,2.17
2022-08-12T21:39:20.446Z,2.40
2022-08-12T21:41:51.071Z,1.90
2022-08-12T21:44:24.271Z,1.87
2022-08-12T21:47:20.097Z,2.30
2022-08-12T21:50:03.012Z,2.30
2022-08-12T21:52:35.786Z,2.60
2022-08-12T21:55:08.360Z,2.10
2022-08-12T21:57:50.975Z,2.13
2022-08-12T22:00:32.123Z,2.50
2022-08-12T22:03:30.376Z,2.27
2022-08-12T22:06:25.883Z,2.23
2022-08-12T22:09:02.112Z,2.13
2022-08-12T22:11:41.659Z,2.10
2022-08-12T22:14:21.453Z,2.27
2022-08-12T22:16:52.614Z,2.70
2022-08-12T22:19:21.497Z,2.20
2022-08-12T22:21:53.789Z,2.27
2022-08-12T22:24:27.032Z,2.20
2022-08-12T22:26:58.421Z,3.00
2022-08-12T22:29:40.317Z,2.43
2022-08-12T22:32:11.972Z,2.30
2022-08-12T22:34:40.201Z,2.50
2022-08-12T22:37:19.943Z,2.80
2022-08-12T22:39:49.072Z,2.50
2022-08-12T22:42:35.263Z,2.27
2022-08-12T22:45:23.230Z,2.27
2022-08-12T22:47:54.678Z,2.63
2022-08-12T22:50:27.828Z,2.43
2022-08-12T22:53:14.949Z,2.10
2022-08-12T22:55:59.639Z,2.27
2022-08-12T22:58:33.671Z,1.80
2022-08-12T23:01:03.478Z,2.50
2022-08-12T23:03:48.751Z,2.30
2022-08-12T23:06:20.139Z,2.57
2022-08-12T23:08:48.473Z,2.60
2022-08-12T23:11:17.960Z,1.90
2022-08-12T23:13:55.457Z,2.60
2022-08-12T23:16:29.410Z,2.20
2022-08-12T23:19:10.543Z,2.53
2022-08-12T23:22:05.239Z,2.00
2022-08-12T23:24:40.979Z,2.40
2022-08-12T23:27:50.198Z,2.40
2022-08-12T23:30:18.741Z,2.20
2022-08-12T23:32:54.794Z,2.20
2022-08-12T23:35:53.569Z,2.33
2022-08-12T23:38:30.368Z,2.30
2022-08-12T23:41:00.954Z,2.10
2022-08-12T23:43:39.997Z,2.47
2022-08-12T23:46:09.752Z,2.00
2022-08-12T23:48:38.605Z,2.37
2022-08-12T23:51:23.678Z,2.53
2022-08-12T23:53:55.062Z,2.00
2022-08-12T23:56:23.934Z,1.90
2022-08-12T23:58:53.829Z,2.90
